sensor_id;sensor_type;location;lat;lon;timestamp;pressure;altitude;pressure_sealevel;temperature;humidity
80648;BME280;70012;0.000;0.000;2024-01-25T00:00:56;101841.28;;;8.15;77.13
80648;BME280;70012;0.000;0.000;2024-01-25T00:03:23;101832.03;;;8.09;76.88
80648;BME280;70012;0.000;0.000;2024-01-25T00:05:49;101839.19;;;8.17;76.99
80648;BME280;70012;0.000;0.000;2024-01-25T00:08:16;101853.88;;;8.16;77.35
80648;BME280;70012;0.000;0.000;2024-01-25T00:10:43;101846.72;;;8.15;77.41
80648;BME280;70012;0.000;0.000;2024-01-25T00:13:09;101832.22;;;8.08;77.57
80648;BME280;70012;0.000;0.000;2024-01-25T00:15:36;101847.16;;;8.12;77.57
80648;BME280;70012;0.000;0.000;2024-01-25T00:18:03;101844.59;;;8.10;77.67
80648;BME280;70012;0.000;0.000;2024-01-25T00:20:30;101835.34;;;8.05;78.05
80648;BME280;70012;0.000;0.000;2024-01-25T00:22:56;101824.03;;;8.08;78.04
80648;BME280;70012;0.000;0.000;2024-01-25T00:25:23;101805.09;;;7.99;77.88
80648;BME280;70012;0.000;0.000;2024-01-25T00:27:50;101827.78;;;8.07;77.97
80648;BME280;70012;0.000;0.000;2024-01-25T00:30:17;101836.41;;;8.04;78.22
80648;BME280;70012;0.000;0.000;2024-01-25T00:32:43;101841.44;;;8.07;78.22
80648;BME280;70012;0.000;0.000;2024-01-25T00:35:11;101830.72;;;8.05;78.24
80648;BME280;70012;0.000;0.000;2024-01-25T00:37:40;101827.75;;;8.00;78.18
80648;BME280;70012;0.000;0.000;2024-01-25T00:40:08;101838.69;;;8.07;78.03
80648;BME280;70012;0.000;0.000;2024-01-25T00:42:41;101839.31;;;8.02;78.54
80648;BME280;70012;0.000;0.000;2024-01-25T00:45:10;101825.25;;;7.98;78.30
80648;BME280;70012;0.000;0.000;2024-01-25T00:47:37;101840.81;;;8.05;78.17
80648;BME280;70012;0.000;0.000;2024-01-25T00:50:05;101843.53;;;8.05;78.52
80648;BME280;70012;0.000;0.000;2024-01-25T00:52:32;101848.72;;;7.99;78.31
80648;BME280;70012;0.000;0.000;2024-01-25T00:54:59;101853.34;;;7.99;78.86
80648;BME280;70012;0.000;0.000;2024-01-25T00:57:26;101841.75;;;7.90;79.05
80648;BME280;70012;0.000;0.000;2024-01-25T00:59:53;101852.53;;;7.98;79.17
80648;BME280;70012;0.000;0.000;2024-01-25T01:02:19;101855.88;;;8.00;78.93
80648;BME280;70012;0.000;0.000;2024-01-25T01:04:48;101849.13;;;7.96;78.75
80648;BME280;70012;0.000;0.000;2024-01-25T01:07:15;101841.09;;;7.88;79.08
80648;BME280;70012;0.000;0.000;2024-01-25T01:09:42;101847.44;;;7.95;79.13
80648;BME280;70012;0.000;0.000;2024-01-25T01:12:10;101855.38;;;7.90;78.98
80648;BME280;70012;0.000;0.000;2024-01-25T01:14:36;101855.38;;;7.90;78.87
80648;BME280;70012;0.000;0.000;2024-01-25T01:17:03;101858.72;;;7.85;79.39
80648;BME280;70012;0.000;0.000;2024-01-25T01:19:30;101863.25;;;7.78;79.05
80648;BME280;70012;0.000;0.000;2024-01-25T01:21:57;101866.22;;;7.83;79.52
80648;BME280;70012;0.000;0.000;2024-01-25T01:24:23;101872.31;;;7.79;79.10
80648;BME280;70012;0.000;0.000;2024-01-25T01:26:50;101867.88;;;7.78;79.42
80648;BME280;70012;0.000;0.000;2024-01-25T01:29:17;101873.72;;;7.75;79.60
80648;BME280;70012;0.000;0.000;2024-01-25T01:31:44;101874.97;;;7.72;79.51
80648;BME280;70012;0.000;0.000;2024-01-25T01:34:10;101875.81;;;7.73;79.22
80648;BME280;70012;0.000;0.000;2024-01-25T01:36:39;101857.25;;;7.61;79.52
80648;BME280;70012;0.000;0.000;2024-01-25T01:39:06;101869.47;;;7.65;79.52
80648;BME280;70012;0.000;0.000;2024-01-25T01:41:32;101884.50;;;7.61;79.92
80648;BME280;70012;0.000;0.000;2024-01-25T01:43:59;101881.16;;;7.59;79.66
80648;BME280;70012;0.000;0.000;2024-01-25T01:46:37;101887.38;;;7.53;79.61
80648;BME280;70012;0.000;0.000;2024-01-25T01:49:04;101873.50;;;7.48;80.01
80648;BME280;70012;0.000;0.000;2024-01-25T01:51:32;101878.31;;;7.46;80.26
80648;BME280;70012;0.000;0.000;2024-01-25T01:54:00;101888.56;;;7.44;80.40
80648;BME280;70012;0.000;0.000;2024-01-25T01:56:28;101878.03;;;7.41;80.40
80648;BME280;70012;0.000;0.000;2024-01-25T01:59:00;101888.94;;;7.41;80.71
80648;BME280;70012;0.000;0.000;2024-01-25T02:01:28;101881.53;;;7.34;80.61
80648;BME280;70012;0.000;0.000;2024-01-25T02:03:55;101878.94;;;7.26;81.02
80648;BME280;70012;0.000;0.000;2024-01-25T02:06:26;101882.78;;;7.32;81.17
80648;BME280;70012;0.000;0.000;2024-01-25T02:08:53;101883.81;;;7.31;80.81
80648;BME280;70012;0.000;0.000;2024-01-25T02:11:20;101883.91;;;7.22;81.37
80648;BME280;70012;0.000;0.000;2024-01-25T02:13:46;101882.63;;;7.18;81.40
80648;BME280;70012;0.000;0.000;2024-01-25T02:16:13;101889.97;;;7.18;81.48
80648;BME280;70012;0.000;0.000;2024-01-25T02:18:44;101881.50;;;7.13;81.84
80648;BME280;70012;0.000;0.000;2024-01-25T02:21:11;101885.66;;;7.09;81.50
80648;BME280;70012;0.000;0.000;2024-01-25T02:23:37;101884.84;;;7.08;81.20
80648;BME280;70012;0.000;0.000;2024-01-25T02:26:04;101886.44;;;7.02;81.78
80648;BME280;70012;0.000;0.000;2024-01-25T02:28:31;101887.47;;;7.01;81.89
80648;BME280;70012;0.000;0.000;2024-01-25T02:30:59;101897.13;;;7.04;81.75
80648;BME280;70012;0.000;0.000;2024-01-25T02:33:26;101891.88;;;7.02;81.51
80648;BME280;70012;0.000;0.000;2024-01-25T02:35:53;101892.66;;;6.96;82.06
80648;BME280;70012;0.000;0.000;2024-01-25T02:38:19;101906.94;;;6.98;81.89
80648;BME280;70012;0.000;0.000;2024-01-25T02:40:46;101906.00;;;6.91;82.33
80648;BME280;70012;0.000;0.000;2024-01-25T02:43:13;101904.69;;;6.87;82.19
80648;BME280;70012;0.000;0.000;2024-01-25T02:45:39;101905.72;;;6.86;82.10
80648;BME280;70012;0.000;0.000;2024-01-25T02:48:06;101915.31;;;6.82;82.11
80648;BME280;70012;0.000;0.000;2024-01-25T02:50:33;101923.47;;;6.82;82.39
80648;BME280;70012;0.000;0.000;2024-01-25T02:52:59;101918.78;;;6.76;82.49
80648;BME280;70012;0.000;0.000;2024-01-25T02:55:26;101923.41;;;6.75;82.95
80648;BME280;70012;0.000;0.000;2024-01-25T02:57:54;101924.22;;;6.76;82.49
80648;BME280;70012;0.000;0.000;2024-01-25T03:00:21;101927.31;;;6.72;82.71
80648;BME280;70012;0.000;0.000;2024-01-25T03:02:48;101928.38;;;6.71;83.18
80648;BME280;70012;0.000;0.000;2024-01-25T03:05:14;101913.53;;;6.59;83.81
80648;BME280;70012;0.000;0.000;2024-01-25T03:07:41;101917.31;;;6.58;83.49
80648;BME280;70012;0.000;0.000;2024-01-25T03:10:08;101930.16;;;6.64;83.63
80648;BME280;70012;0.000;0.000;2024-01-25T03:12:35;101931.66;;;6.67;83.04
80648;BME280;70012;0.000;0.000;2024-01-25T03:15:02;101919.38;;;6.56;83.63
80648;BME280;70012;0.000;0.000;2024-01-25T03:17:30;101921.06;;;6.57;84.60
80648;BME280;70012;0.000;0.000;2024-01-25T03:19:57;101926.97;;;6.61;83.99
80648;BME280;70012;0.000;0.000;2024-01-25T03:22:24;101923.38;;;6.60;83.30
80648;BME280;70012;0.000;0.000;2024-01-25T03:24:50;101908.84;;;6.53;83.99
80648;BME280;70012;0.000;0.000;2024-01-25T03:27:17;101926.09;;;6.60;83.23
80648;BME280;70012;0.000;0.000;2024-01-25T03:29:44;101922.09;;;6.56;83.49
80648;BME280;70012;0.000;0.000;2024-01-25T03:32:10;101918.69;;;6.54;83.64
80648;BME280;70012;0.000;0.000;2024-01-25T03:34:37;101915.72;;;6.49;84.07
80648;BME280;70012;0.000;0.000;2024-01-25T03:37:04;101924.22;;;6.46;84.32
80648;BME280;70012;0.000;0.000;2024-01-25T03:39:31;101918.78;;;6.46;84.07
80648;BME280;70012;0.000;0.000;2024-01-25T03:41:57;101917.13;;;6.45;83.90
80648;BME280;70012;0.000;0.000;2024-01-25T03:44:24;101922.94;;;6.41;84.80
80648;BME280;70012;0.000;0.000;2024-01-25T03:46:51;101925.84;;;6.40;84.30
80648;BME280;70012;0.000;0.000;2024-01-25T03:49:18;101924.97;;;6.39;83.84
80648;BME280;70012;0.000;0.000;2024-01-25T03:51:45;101928.38;;;6.41;83.48
80648;BME280;70012;0.000;0.000;2024-01-25T03:54:12;101908.66;;;6.39;84.01
80648;BME280;70012;0.000;0.000;2024-01-25T03:56:39;101919.72;;;6.38;84.96
80648;BME280;70012;0.000;0.000;2024-01-25T03:59:05;101921.22;;;6.40;84.97
80648;BME280;70012;0.000;0.000;2024-01-25T04:01:46;101921.63;;;6.37;84.27
80648;BME280;70012;0.000;0.000;2024-01-25T04:04:16;101938.22;;;6.43;85.06
80648;BME280;70012;0.000;0.000;2024-01-25T04:06:45;101938.22;;;6.43;84.19
80648;BME280;70012;0.000;0.000;2024-01-25T04:09:13;101933.34;;;6.38;84.56
80648;BME280;70012;0.000;0.000;2024-01-25T04:11:41;101938.88;;;6.45;84.15
80648;BME280;70012;0.000;0.000;2024-01-25T04:14:08;101940.28;;;6.40;84.33
80648;BME280;70012;0.000;0.000;2024-01-25T04:16:35;101948.44;;;6.40;83.91
80648;BME280;70012;0.000;0.000;2024-01-25T04:19:01;101947.13;;;6.36;84.05
80648;BME280;70012;0.000;0.000;2024-01-25T04:21:28;101955.28;;;6.36;83.91
80648;BME280;70012;0.000;0.000;2024-01-25T04:23:55;101959.59;;;6.31;84.48
80648;BME280;70012;0.000;0.000;2024-01-25T04:26:22;101957.81;;;6.23;84.83
80648;BME280;70012;0.000;0.000;2024-01-25T04:28:49;101956.78;;;6.24;83.95
80648;BME280;70012;0.000;0.000;2024-01-25T04:31:16;101950.59;;;6.15;84.96
80648;BME280;70012;0.000;0.000;2024-01-25T04:33:43;101946.31;;;6.13;84.00
80648;BME280;70012;0.000;0.000;2024-01-25T04:36:14;101954.31;;;6.14;84.08
80648;BME280;70012;0.000;0.000;2024-01-25T04:38:41;101960.31;;;6.09;85.04
80648;BME280;70012;0.000;0.000;2024-01-25T04:41:07;101954.75;;;6.03;85.13
80648;BME280;70012;0.000;0.000;2024-01-25T04:43:35;101972.13;;;6.02;85.06
80648;BME280;70012;0.000;0.000;2024-01-25T04:46:03;101972.28;;;6.00;85.99
80648;BME280;70012;0.000;0.000;2024-01-25T04:48:30;101968.56;;;5.93;85.25
80648;BME280;70012;0.000;0.000;2024-01-25T04:50:58;101966.84;;;6.00;84.71
80648;BME280;70012;0.000;0.000;2024-01-25T04:53:25;101969.91;;;5.97;85.42
80648;BME280;70012;0.000;0.000;2024-01-25T04:55:53;101970.25;;;5.94;85.32
80648;BME280;70012;0.000;0.000;2024-01-25T04:58:20;101963.31;;;5.91;86.11
80648;BME280;70012;0.000;0.000;2024-01-25T05:00:47;101969.44;;;5.93;86.26
80648;BME280;70012;0.000;0.000;2024-01-25T05:03:14;101941.28;;;5.86;85.20
80648;BME280;70012;0.000;0.000;2024-01-25T05:05:40;101949.25;;;5.88;85.45
80648;BME280;70012;0.000;0.000;2024-01-25T05:08:07;101946.53;;;5.88;84.65
80648;BME280;70012;0.000;0.000;2024-01-25T05:10:34;101935.72;;;5.80;84.52
80648;BME280;70012;0.000;0.000;2024-01-25T05:13:01;101949.50;;;5.78;84.89
80648;BME280;70012;0.000;0.000;2024-01-25T05:15:27;101944.59;;;5.73;84.70
80648;BME280;70012;0.000;0.000;2024-01-25T05:17:54;101959.06;;;5.74;85.09
80648;BME280;70012;0.000;0.000;2024-01-25T05:20:21;101958.03;;;5.75;84.71
80648;BME280;70012;0.000;0.000;2024-01-25T05:22:47;101953.13;;;5.70;84.79
80648;BME280;70012;0.000;0.000;2024-01-25T05:25:17;101954.84;;;5.71;84.72
80648;BME280;70012;0.000;0.000;2024-01-25T05:27:47;101948.44;;;5.64;85.13
80648;BME280;70012;0.000;0.000;2024-01-25T05:30:17;101946.75;;;5.63;84.91
80648;BME280;70012;0.000;0.000;2024-01-25T05:32:44;101964.00;;;5.70;85.04
80648;BME280;70012;0.000;0.000;2024-01-25T05:35:12;101953.88;;;5.64;85.38
80648;BME280;70012;0.000;0.000;2024-01-25T05:37:39;101945.38;;;5.59;84.97
80648;BME280;70012;0.000;0.000;2024-01-25T05:40:06;101957.59;;;5.63;84.81
80648;BME280;70012;0.000;0.000;2024-01-25T05:42:33;101954.59;;;5.58;84.69
80648;BME280;70012;0.000;0.000;2024-01-25T05:44:59;101960.38;;;5.55;84.75
80648;BME280;70012;0.000;0.000;2024-01-25T05:47:26;101955.31;;;5.52;84.77
80648;BME280;70012;0.000;0.000;2024-01-25T05:49:53;101958.72;;;5.45;84.98
80648;BME280;70012;0.000;0.000;2024-01-25T05:52:19;101959.41;;;5.48;85.05
80648;BME280;70012;0.000;0.000;2024-01-25T05:54:48;101969.78;;;5.44;85.14
80648;BME280;70012;0.000;0.000;2024-01-25T05:57:15;101948.28;;;5.34;84.55
80648;BME280;70012;0.000;0.000;2024-01-25T05:59:42;101976.78;;;5.38;85.19
80648;BME280;70012;0.000;0.000;2024-01-25T06:02:08;101963.59;;;5.27;86.09
80648;BME280;70012;0.000;0.000;2024-01-25T06:04:35;101961.91;;;5.26;85.00
80648;BME280;70012;0.000;0.000;2024-01-25T06:07:03;101974.84;;;5.24;85.55
80648;BME280;70012;0.000;0.000;2024-01-25T06:09:30;101970.13;;;5.18;85.88
80648;BME280;70012;0.000;0.000;2024-01-25T06:11:58;101978.91;;;5.20;85.74
80648;BME280;70012;0.000;0.000;2024-01-25T06:14:25;101988.06;;;5.19;85.71
80648;BME280;70012;0.000;0.000;2024-01-25T06:16:51;101985.53;;;5.17;85.58
80648;BME280;70012;0.000;0.000;2024-01-25T06:19:18;101979.63;;;5.13;85.49
80648;BME280;70012;0.000;0.000;2024-01-25T06:21:45;101977.94;;;5.12;85.88
80648;BME280;70012;0.000;0.000;2024-01-25T06:24:11;101975.91;;;5.06;85.99
80648;BME280;70012;0.000;0.000;2024-01-25T06:26:38;101979.00;;;5.03;86.15
80648;BME280;70012;0.000;0.000;2024-01-25T06:29:05;101986.13;;;5.04;85.84
80648;BME280;70012;0.000;0.000;2024-01-25T06:31:32;101983.44;;;4.96;85.97
80648;BME280;70012;0.000;0.000;2024-01-25T06:33:59;102003.97;;;4.99;85.73
80648;BME280;70012;0.000;0.000;2024-01-25T06:36:29;102006.16;;;4.95;85.78
80648;BME280;70012;0.000;0.000;2024-01-25T06:38:56;102016.69;;;4.98;85.47
80648;BME280;70012;0.000;0.000;2024-01-25T06:41:23;102015.03;;;4.89;85.89
80648;BME280;70012;0.000;0.000;2024-01-25T06:43:49;102008.25;;;4.85;86.00
80648;BME280;70012;0.000;0.000;2024-01-25T06:46:16;102016.91;;;4.88;86.21
80648;BME280;70012;0.000;0.000;2024-01-25T06:48:43;102017.06;;;4.87;86.15
80648;BME280;70012;0.000;0.000;2024-01-25T06:51:10;102020.78;;;4.86;86.55
80648;BME280;70012;0.000;0.000;2024-01-25T06:53:36;102015.03;;;4.80;86.56
80648;BME280;70012;0.000;0.000;2024-01-25T06:56:04;102019.78;;;4.78;86.80
80648;BME280;70012;0.000;0.000;2024-01-25T06:58:30;102020.81;;;4.77;86.49
80648;BME280;70012;0.000;0.000;2024-01-25T07:00:57;102027.28;;;4.76;86.43
80648;BME280;70012;0.000;0.000;2024-01-25T07:03:25;102032.69;;;4.76;85.92
80648;BME280;70012;0.000;0.000;2024-01-25T07:05:52;102025.56;;;4.75;85.85
80648;BME280;70012;0.000;0.000;2024-01-25T07:08:19;102029.66;;;4.71;86.15
80648;BME280;70012;0.000;0.000;2024-01-25T07:10:45;102026.28;;;4.69;85.94
80648;BME280;70012;0.000;0.000;2024-01-25T07:13:12;102019.16;;;4.68;85.79
80648;BME280;70012;0.000;0.000;2024-01-25T07:15:39;102014.41;;;4.62;85.74
80648;BME280;70012;0.000;0.000;2024-01-25T07:18:06;102017.47;;;4.59;85.91
80648;BME280;70012;0.000;0.000;2024-01-25T07:20:33;102021.53;;;4.55;85.67
80648;BME280;70012;0.000;0.000;2024-01-25T07:23:03;102034.78;;;4.58;86.30
80648;BME280;70012;0.000;0.000;2024-01-25T07:25:30;102040.84;;;4.60;85.76
80648;BME280;70012;0.000;0.000;2024-01-25T07:27:57;102032.56;;;4.53;86.19
80648;BME280;70012;0.000;0.000;2024-01-25T07:30:23;102017.50;;;4.51;85.83
80648;BME280;70012;0.000;0.000;2024-01-25T07:32:50;102027.47;;;4.50;85.77
80648;BME280;70012;0.000;0.000;2024-01-25T07:35:17;102036.81;;;4.56;85.20
80648;BME280;70012;0.000;0.000;2024-01-25T07:37:44;102039.69;;;4.54;85.70
80648;BME280;70012;0.000;0.000;2024-01-25T07:40:11;102048.34;;;4.58;85.35
80648;BME280;70012;0.000;0.000;2024-01-25T07:42:38;102048.66;;;4.55;85.43
80648;BME280;70012;0.000;0.000;2024-01-25T07:45:06;102052.41;;;4.54;85.28
80648;BME280;70012;0.000;0.000;2024-01-25T07:47:33;102034.47;;;4.44;85.46
80648;BME280;70012;0.000;0.000;2024-01-25T07:50:00;102041.41;;;4.47;85.08
80648;BME280;70012;0.000;0.000;2024-01-25T07:52:27;102048.84;;;4.53;85.19
80648;BME280;70012;0.000;0.000;2024-01-25T07:54:54;102032.56;;;4.45;84.88
80648;BME280;70012;0.000;0.000;2024-01-25T07:57:20;102042.91;;;4.49;85.00
80648;BME280;70012;0.000;0.000;2024-01-25T07:59:47;102037.81;;;4.46;84.81
80648;BME280;70012;0.000;0.000;2024-01-25T08:02:13;102019.88;;;4.37;84.69
80648;BME280;70012;0.000;0.000;2024-01-25T08:04:45;102032.25;;;4.40;84.84
80648;BME280;70012;0.000;0.000;2024-01-25T08:07:12;102042.41;;;4.46;84.76
80648;BME280;70012;0.000;0.000;2024-01-25T08:09:39;102047.34;;;4.42;84.63
80648;BME280;70012;0.000;0.000;2024-01-25T08:12:06;102034.78;;;4.41;84.62
80648;BME280;70012;0.000;0.000;2024-01-25T08:14:32;102041.56;;;4.45;84.85
80648;BME280;70012;0.000;0.000;2024-01-25T08:16:59;102049.03;;;4.43;85.06
80648;BME280;70012;0.000;0.000;2024-01-25T08:19:26;102043.25;;;4.46;85.41
80648;BME280;70012;0.000;0.000;2024-01-25T08:21:53;102049.34;;;4.48;85.83
80648;BME280;70012;0.000;0.000;2024-01-25T08:24:20;102046.66;;;4.48;85.14
80648;BME280;70012;0.000;0.000;2024-01-25T08:26:47;102052.41;;;4.54;84.77
80648;BME280;70012;0.000;0.000;2024-01-25T08:29:13;102054.78;;;4.57;85.14
80648;BME280;70012;0.000;0.000;2024-01-25T08:31:40;102043.25;;;4.55;85.86
80648;BME280;70012;0.000;0.000;2024-01-25T08:34:06;102048.66;;;4.63;85.10
80648;BME280;70012;0.000;0.000;2024-01-25T08:36:33;102045.59;;;4.66;85.28
80648;BME280;70012;0.000;0.000;2024-01-25T08:39:00;102039.50;;;4.64;85.82
80648;BME280;70012;0.000;0.000;2024-01-25T08:41:27;102042.19;;;4.72;84.86
80648;BME280;70012;0.000;0.000;2024-01-25T08:43:58;102034.41;;;4.77;84.90
80648;BME280;70012;0.000;0.000;2024-01-25T08:46:25;102013.69;;;4.76;84.61
80648;BME280;70012;0.000;0.000;2024-01-25T08:48:51;102031.63;;;4.86;84.77
80648;BME280;70012;0.000;0.000;2024-01-25T08:51:18;102042.84;;;4.91;85.22
80648;BME280;70012;0.000;0.000;2024-01-25T08:53:45;102040.28;;;4.89;85.44
80648;BME280;70012;0.000;0.000;2024-01-25T08:56:11;102035.34;;;4.93;84.16
80648;BME280;70012;0.000;0.000;2024-01-25T08:58:38;102034.00;;;4.97;84.46
80648;BME280;70012;0.000;0.000;2024-01-25T09:01:05;102035.31;;;5.01;84.65
80648;BME280;70012;0.000;0.000;2024-01-25T09:03:31;102039.72;;;5.10;84.32
80648;BME280;70012;0.000;0.000;2024-01-25T09:05:58;102031.56;;;5.10;84.39
80648;BME280;70012;0.000;0.000;2024-01-25T09:08:25;102033.22;;;5.20;85.27
80648;BME280;70012;0.000;0.000;2024-01-25T09:10:51;102022.34;;;5.20;84.47
80648;BME280;70012;0.000;0.000;2024-01-25T09:13:18;102020.81;;;5.25;84.29
80648;BME280;70012;0.000;0.000;2024-01-25T09:15:45;102032.28;;;5.36;84.58
80648;BME280;70012;0.000;0.000;2024-01-25T09:18:13;102024.00;;;5.37;84.29
80648;BME280;70012;0.000;0.000;2024-01-25T09:20:40;102041.28;;;5.44;84.41
80648;BME280;70012;0.000;0.000;2024-01-25T09:23:07;102036.66;;;5.45;83.81
80648;BME280;70012;0.000;0.000;2024-01-25T09:25:34;102036.81;;;5.52;83.90
80648;BME280;70012;0.000;0.000;2024-01-25T09:28:01;102033.53;;;5.56;84.02
80648;BME280;70012;0.000;0.000;2024-01-25T09:30:27;102052.72;;;5.63;84.88
80648;BME280;70012;0.000;0.000;2024-01-25T09:32:55;102054.41;;;5.64;84.00
80648;BME280;70012;0.000;0.000;2024-01-25T09:35:22;102060.13;;;5.69;83.76
80648;BME280;70012;0.000;0.000;2024-01-25T09:37:49;102064.84;;;5.75;83.86
80648;BME280;70012;0.000;0.000;2024-01-25T09:40:19;102064.13;;;5.82;83.90
80648;BME280;70012;0.000;0.000;2024-01-25T09:42:49;102054.44;;;5.87;84.22
80648;BME280;70012;0.000;0.000;2024-01-25T09:45:19;102046.44;;;5.86;84.02
80648;BME280;70012;0.000;0.000;2024-01-25T09:47:46;102063.03;;;5.99;84.23
80648;BME280;70012;0.000;0.000;2024-01-25T09:50:13;102070.84;;;6.02;83.95
80648;BME280;70012;0.000;0.000;2024-01-25T09:52:44;102059.59;;;6.05;83.31
80648;BME280;70012;0.000;0.000;2024-01-25T09:55:17;102067.69;;;6.14;83.16
80648;BME280;70012;0.000;0.000;2024-01-25T09:57:46;102065.25;;;6.19;83.24
80648;BME280;70012;0.000;0.000;2024-01-25T10:00:16;102065.94;;;6.21;82.64
80648;BME280;70012;0.000;0.000;2024-01-25T10:02:43;102070.47;;;6.29;82.71
80648;BME280;70012;0.000;0.000;2024-01-25T10:15:46;102085.72;;;6.53;81.92
80648;BME280;70012;0.000;0.000;2024-01-25T10:18:16;102084.34;;;6.57;81.90
80648;BME280;70012;0.000;0.000;2024-01-25T10:20:55;102071.00;;;6.62;81.90
80648;BME280;70012;0.000;0.000;2024-01-25T10:23:22;102065.84;;;6.67;82.06
80648;BME280;70012;0.000;0.000;2024-01-25T10:25:49;102067.00;;;6.73;81.77
80648;BME280;70012;0.000;0.000;2024-01-25T10:28:17;102067.47;;;6.77;81.69
80648;BME280;70012;0.000;0.000;2024-01-25T10:30:44;102074.69;;;6.84;80.82
80648;BME280;70012;0.000;0.000;2024-01-25T10:33:11;102067.69;;;6.90;80.95
80648;BME280;70012;0.000;0.000;2024-01-25T10:35:39;102071.06;;;6.92;80.75
80648;BME280;70012;0.000;0.000;2024-01-25T10:38:08;102074.06;;;6.97;80.46
80648;BME280;70012;0.000;0.000;2024-01-25T10:40:35;102064.69;;;7.00;80.72
80648;BME280;70012;0.000;0.000;2024-01-25T10:43:03;102060.38;;;7.05;80.71
80648;BME280;70012;0.000;0.000;2024-01-25T10:45:30;102057.91;;;7.11;80.47
80648;BME280;70012;0.000;0.000;2024-01-25T10:47:59;102051.72;;;7.17;79.61
80648;BME280;70012;0.000;0.000;2024-01-25T10:50:26;102053.00;;;7.21;79.58
80648;BME280;70012;0.000;0.000;2024-01-25T10:52:53;102050.56;;;7.26;79.57
80648;BME280;70012;0.000;0.000;2024-01-25T10:55:23;102050.66;;;7.33;78.42
80648;BME280;70012;0.000;0.000;2024-01-25T10:57:52;102049.06;;;7.39;77.43
80648;BME280;70012;0.000;0.000;2024-01-25T11:00:19;102034.00;;;7.43;78.05
80648;BME280;70012;0.000;0.000;2024-01-25T11:02:47;102026.50;;;7.45;78.15
80648;BME280;70012;0.000;0.000;2024-01-25T11:05:18;102019.81;;;7.47;77.92
80648;BME280;70012;0.000;0.000;2024-01-25T11:07:49;102024.03;;;7.50;77.61
80648;BME280;70012;0.000;0.000;2024-01-25T11:10:21;102024.97;;;7.57;77.03
80648;BME280;70012;0.000;0.000;2024-01-25T11:13:00;102008.19;;;7.60;76.19
80648;BME280;70012;0.000;0.000;2024-01-25T11:15:35;102010.56;;;7.63;77.24
80648;BME280;70012;0.000;0.000;2024-01-25T11:18:04;102001.97;;;7.66;76.59
80648;BME280;70012;0.000;0.000;2024-01-25T11:20:36;102002.06;;;7.73;75.63
80648;BME280;70012;0.000;0.000;2024-01-25T11:23:07;102005.91;;;7.79;76.31
80648;BME280;70012;0.000;0.000;2024-01-25T11:25:37;101998.63;;;7.86;75.36
80648;BME280;70012;0.000;0.000;2024-01-25T11:28:05;102000.59;;;7.92;74.59
80648;BME280;70012;0.000;0.000;2024-01-25T11:30:33;101988.22;;;7.96;74.47
80648;BME280;70012;0.000;0.000;2024-01-25T11:33:04;101995.63;;;8.02;75.79
80648;BME280;70012;0.000;0.000;2024-01-25T11:35:33;101985.63;;;8.10;74.64
80648;BME280;70012;0.000;0.000;2024-01-25T11:38:00;101985.66;;;8.16;75.32
80648;BME280;70012;0.000;0.000;2024-01-25T11:40:27;101982.34;;;8.21;74.52
80648;BME280;70012;0.000;0.000;2024-01-25T11:42:58;101982.22;;;8.29;74.76
80648;BME280;70012;0.000;0.000;2024-01-25T11:45:26;101974.50;;;8.40;72.36
80648;BME280;70012;0.000;0.000;2024-01-25T11:47:56;101961.78;;;8.47;73.61
80648;BME280;70012;0.000;0.000;2024-01-25T11:50:23;101972.97;;;8.52;71.89
80648;BME280;70012;0.000;0.000;2024-01-25T11:52:51;101980.78;;;8.62;71.40
80648;BME280;70012;0.000;0.000;2024-01-25T11:55:17;101976.22;;;8.69;71.24
80648;BME280;70012;0.000;0.000;2024-01-25T11:57:44;101974.16;;;8.78;72.15
80648;BME280;70012;0.000;0.000;2024-01-25T12:00:15;101974.00;;;8.86;71.17
80648;BME280;70012;0.000;0.000;2024-01-25T12:02:42;101967.72;;;8.92;72.46
80648;BME280;70012;0.000;0.000;2024-01-25T12:05:10;101959.34;;;9.01;72.41
80648;BME280;70012;0.000;0.000;2024-01-25T12:07:39;101949.94;;;9.10;72.55
80648;BME280;70012;0.000;0.000;2024-01-25T12:10:08;101952.28;;;9.20;70.29
80648;BME280;70012;0.000;0.000;2024-01-25T12:12:37;101956.09;;;9.32;70.92
80648;BME280;70012;0.000;0.000;2024-01-25T12:15:07;101951.09;;;9.42;71.61
80648;BME280;70012;0.000;0.000;2024-01-25T12:17:34;101944.38;;;9.52;70.67
80648;BME280;70012;0.000;0.000;2024-01-25T12:20:22;101941.66;;;9.58;69.51
80648;BME280;70012;0.000;0.000;2024-01-25T12:22:49;101934.31;;;9.66;70.13
80648;BME280;70012;0.000;0.000;2024-01-25T12:25:17;101934.53;;;9.71;70.51
80648;BME280;70012;0.000;0.000;2024-01-25T12:27:47;101929.47;;;9.74;69.76
80648;BME280;70012;0.000;0.000;2024-01-25T12:30:17;101914.09;;;9.80;68.54
80648;BME280;70012;0.000;0.000;2024-01-25T12:32:44;101919.59;;;9.87;70.34
80648;BME280;70012;0.000;0.000;2024-01-25T12:35:10;101914.53;;;9.90;69.26
80648;BME280;70012;0.000;0.000;2024-01-25T12:37:39;101925.91;;;9.94;67.75
80648;BME280;70012;0.000;0.000;2024-01-25T12:40:06;101923.78;;;10.03;68.52
80648;BME280;70012;0.000;0.000;2024-01-25T12:42:33;101910.31;;;10.08;67.49
80648;BME280;70012;0.000;0.000;2024-01-25T12:45:00;101900.22;;;10.15;68.25
80648;BME280;70012;0.000;0.000;2024-01-25T12:47:27;101892.19;;;10.20;68.91
80648;BME280;70012;0.000;0.000;2024-01-25T12:49:54;101889.69;;;10.25;68.26
80648;BME280;70012;0.000;0.000;2024-01-25T12:52:21;101900.81;;;10.31;67.87
80648;BME280;70012;0.000;0.000;2024-01-25T12:54:48;101896.59;;;10.35;67.22
80648;BME280;70012;0.000;0.000;2024-01-25T12:57:15;101896.44;;;10.36;65.42
80648;BME280;70012;0.000;0.000;2024-01-25T12:59:42;101890.28;;;10.41;66.38
80648;BME280;70012;0.000;0.000;2024-01-25T13:02:08;101896.41;;;10.43;65.87
80648;BME280;70012;0.000;0.000;2024-01-25T13:04:36;101887.13;;;10.44;64.92
80648;BME280;70012;0.000;0.000;2024-01-25T13:07:04;101894.28;;;10.45;65.71
80648;BME280;70012;0.000;0.000;2024-01-25T13:09:34;101880.78;;;10.50;66.38
80648;BME280;70012;0.000;0.000;2024-01-25T13:12:04;101886.69;;;10.47;64.40
80648;BME280;70012;0.000;0.000;2024-01-25T13:14:31;101881.22;;;10.47;66.50
80648;BME280;70012;0.000;0.000;2024-01-25T13:17:01;101879.09;;;10.49;65.57
80648;BME280;70012;0.000;0.000;2024-01-25T13:19:34;101868.59;;;10.46;65.52
80648;BME280;70012;0.000;0.000;2024-01-25T13:22:02;101855.34;;;10.43;64.50